createdAt,value
2022-12-05T00:01:23.358Z,4.30
2022-12-05T00:03:52.559Z,4.40
2022-12-05T00:06:19.875Z,4.30
2022-12-05T00:08:47.750Z,4.30
2022-12-05T00:11:17.030Z,4.30
2022-12-05T00:13:44.710Z,4.40
2022-12-05T00:16:14.440Z,4.40
2022-12-05T00:18:41.861Z,4.40
2022-12-05T00:21:13.257Z,4.40
2022-12-05T00:23:39.980Z,4.40
2022-12-05T00:26:07.229Z,4.40
2022-12-05T00:28:34.699Z,4.40
2022-12-05T00:31:06.571Z,4.40
2022-12-05T00:33:33.473Z,4.40
2022-12-05T00:36:09.624Z,4.40
2022-12-05T00:38:36.733Z,4.40
2022-12-05T00:41:08.637Z,4.40
2022-12-05T00:43:36.050Z,4.40
2022-12-05T00:46:05.849Z,4.50
2022-12-05T00:48:34.759Z,4.50
2022-12-05T00:51:07.745Z,4.50
2022-12-05T00:53:35.544Z,4.50
2022-12-05T00:56:11.129Z,4.50
2022-12-05T00:58:38.618Z,4.50
2022-12-05T01:01:10.592Z,4.50
2022-12-05T01:03:37.866Z,4.50
2022-12-05T01:06:06.032Z,4.50
2022-12-05T01:08:34.700Z,4.50
2022-12-05T01:11:02.017Z,4.50
2022-12-05T01:13:29.691Z,4.40
2022-12-05T01:15:56.632Z,4.40
2022-12-05T01:18:24.627Z,4.40
2022-12-05T01:20:52.007Z,4.40
2022-12-05T01:23:19.365Z,4.50
2022-12-05T01:25:49.004Z,4.40
2022-12-05T01:28:16.884Z,4.50
2022-12-05T01:30:48.197Z,4.40
2022-12-05T01:33:15.592Z,4.50
2022-12-05T01:35:42.928Z,4.40
2022-12-05T01:38:12.259Z,4.40
2022-12-05T01:40:39.620Z,4.50
2022-12-05T01:43:14.967Z,4.40
2022-12-05T01:45:43.973Z,4.40
2022-12-05T01:48:28.117Z,4.50
2022-12-05T01:50:55.323Z,4.50
2022-12-05T01:53:22.980Z,4.50
2022-12-05T01:55:51.130Z,4.50
2022-12-05T01:58:19.488Z,4.50
2022-12-05T02:00:46.804Z,4.50
2022-12-05T02:03:20.081Z,4.50
2022-12-05T02:05:50.937Z,4.50
2022-12-05T02:08:17.788Z,4.50
2022-12-05T02:10:50.750Z,4.50
2022-12-05T02:13:25.064Z,4.50
2022-12-05T02:16:06.036Z,4.50
2022-12-05T02:18:41.677Z,4.50
2022-12-05T02:21:36.429Z,4.50
2022-12-05T02:24:32.558Z,4.60
2022-12-05T02:27:11.281Z,4.60
2022-12-05T02:29:57.084Z,4.60
2022-12-05T02:32:36.719Z,4.60
2022-12-05T02:35:45.052Z,4.60
2022-12-05T02:38:26.660Z,4.60
2022-12-05T02:41:08.170Z,4.60
2022-12-05T02:43:42.991Z,4.60
2022-12-05T02:46:17.363Z,4.60
2022-12-05T02:48:46.668Z,4.60
2022-12-05T02:51:17.219Z,4.60
2022-12-05T02:53:45.835Z,4.60
2022-12-05T02:56:13.994Z,4.60
2022-12-05T02:58:53.378Z,4.70
2022-12-05T03:01:27.364Z,4.70
2022-12-05T03:03:55.619Z,4.70
2022-12-05T03:06:29.039Z,4.70
2022-12-05T03:09:04.524Z,4.70
2022-12-05T03:11:39.829Z,4.70
2022-12-05T03:14:15.675Z,4.70
2022-12-05T03:16:47.465Z,4.70
2022-12-05T03:19:37.726Z,4.80
2022-12-05T03:22:10.354Z,4.80
2022-12-05T03:24:40.664Z,4.80
2022-12-05T03:27:30.553Z,4.80
2022-12-05T03:30:11.614Z,4.80
2022-12-05T03:32:51.542Z,4.80
2022-12-05T03:35:24.938Z,4.80
2022-12-05T03:38:09.664Z,4.80
2022-12-05T03:40:46.524Z,4.80
2022-12-05T03:43:16.121Z,4.80
2022-12-05T03:46:23.497Z,4.80
2022-12-05T03:48:57.630Z,4.90
2022-12-05T03:51:29.847Z,4.90
2022-12-05T03:54:07.648Z,4.90
2022-12-05T03:56:43.620Z,5.00
2022-12-05T03:59:28.615Z,5.00
2022-12-05T04:01:57.217Z,5.00
2022-12-05T04:04:42.304Z,5.00
2022-12-05T04:07:14.458Z,5.00
2022-12-05T04:09:49.848Z,5.00
2022-12-05T04:12:23.237Z,5.00
2022-12-05T04:15:02.060Z,5.00
2022-12-05T04:17:59.721Z,5.00
2022-12-05T04:20:49.463Z,5.00
2022-12-05T04:23:17.036Z,5.00
2022-12-05T04:26:08.489Z,5.00
2022-12-05T04:28:49.281Z,5.00
2022-12-05T04:31:22.938Z,5.00
2022-12-05T04:33:57.213Z,5.10
2022-12-05T04:36:30.740Z,5.10
2022-12-05T04:39:10.733Z,5.10
2022-12-05T04:41:45.839Z,5.10
2022-12-05T04:44:17.283Z,5.10
2022-12-05T04:46:46.058Z,5.10
2022-12-05T04:49:17.274Z,5.10
2022-12-05T04:51:45.333Z,5.10
2022-12-05T04:54:18.123Z,5.20
2022-12-05T04:56:48.682Z,5.10
2022-12-05T04:59:15.539Z,5.20
2022-12-05T05:02:06.601Z,5.20
2022-12-05T05:04:47.515Z,5.20
2022-12-05T05:07:15.070Z,5.20
2022-12-05T05:09:42.980Z,5.20
2022-12-05T05:12:13.190Z,5.20
2022-12-05T05:14:42.548Z,5.20
2022-12-05T05:17:09.339Z,5.20
2022-12-05T05:19:36.031Z,5.20
2022-12-05T05:22:02.921Z,5.30
2022-12-05T05:24:29.677Z,5.30
2022-12-05T05:26:57.635Z,5.30
2022-12-05T05:29:24.645Z,5.30
2022-12-05T05:31:51.377Z,5.30
2022-12-05T05:34:18.151Z,5.30
2022-12-05T05:36:44.958Z,5.30
2022-12-05T05:39:13.835Z,5.30
2022-12-05T05:41:41.540Z,5.30
2022-12-05T05:44:08.364Z,5.30
2022-12-05T05:46:35.966Z,5.30
2022-12-05T05:49:03.174Z,5.30
2022-12-05T05:51:30.385Z,5.40
2022-12-05T05:53:58.055Z,5.30
2022-12-05T05:56:24.849Z,5.30
2022-12-05T05:59:03.244Z,5.40
2022-12-05T06:01:31.164Z,5.30
2022-12-05T06:03:58.747Z,5.40
2022-12-05T06:06:26.472Z,5.30
2022-12-05T06:08:54.781Z,5.40
2022-12-05T06:11:26.702Z,5.40
2022-12-05T06:13:55.864Z,5.40
2022-12-05T06:16:22.850Z,5.40
2022-12-05T06:18:51.356Z,5.40
2022-12-05T06:21:18.129Z,5.40
2022-12-05T06:23:45.025Z,5.40
2022-12-05T06:26:14.224Z,5.40
2022-12-05T06:28:42.815Z,5.40
2022-12-05T06:31:13.987Z,5.40
2022-12-05T06:33:41.200Z,5.40
2022-12-05T06:36:14.496Z,5.40
2022-12-05T06:38:42.494Z,5.50
2022-12-05T06:41:13.889Z,5.50
2022-12-05T06:43:40.759Z,5.50
2022-12-05T06:46:09.665Z,5.50
2022-12-05T06:48:36.465Z,5.50
2022-12-05T06:51:03.712Z,5.60
2022-12-05T06:53:30.583Z,5.50
2022-12-05T06:56:07.534Z,5.70
2022-12-05T06:58:37.060Z,5.60
2022-12-05T07:01:22.477Z,5.60
2022-12-05T07:03:49.986Z,5.60
2022-12-05T07:06:17.507Z,5.60
2022-12-05T07:08:44.996Z,5.50
2022-12-05T07:11:14.756Z,5.60
2022-12-05T07:13:41.422Z,5.60
2022-12-05T07:16:08.544Z,5.60
2022-12-05T07:18:36.349Z,5.60
2022-12-05T07:21:13.683Z,5.60
2022-12-05T07:23:42.196Z,5.60
2022-12-05T07:26:11.204Z,5.60
2022-12-05T07:28:37.935Z,5.70
2022-12-05T07:31:10.037Z,5.70
2022-12-05T07:33:37.613Z,5.70
2022-12-05T07:36:07.660Z,5.70
2022-12-05T07:38:34.940Z,5.70
2022-12-05T07:41:24.547Z,5.70
2022-12-05T07:43:52.478Z,5.80
2022-12-05T07:46:19.578Z,5.80
2022-12-05T07:48:47.680Z,5.80
2022-12-05T07:51:17.348Z,5.80
2022-12-05T07:53:44.487Z,5.80
2022-12-05T07:56:14.561Z,5.80
2022-12-05T07:58:41.385Z,5.80
2022-12-05T08:01:16.889Z,5.90
2022-12-05T08:03:44.198Z,5.90
2022-12-05T08:06:22.742Z,6.10
2022-12-05T08:08:50.171Z,5.90
2022-12-05T08:11:25.929Z,5.90
2022-12-05T08:13:53.020Z,6.00
2022-12-05T08:16:22.879Z,5.90
2022-12-05T08:18:53.926Z,5.90
2022-12-05T08:21:20.683Z,5.90
2022-12-05T08:23:47.731Z,6.00
2022-12-05T08:26:20.954Z,6.00
2022-12-05T08:28:52.602Z,6.00
2022-12-05T08:31:24.360Z,6.00
2022-12-05T08:33:57.290Z,6.00
2022-12-05T08:36:27.285Z,6.10
2022-12-05T08:39:03.681Z,6.10
2022-12-05T08:41:31.266Z,6.10
2022-12-05T08:44:00.171Z,6.10
2022-12-05T08:46:27.043Z,6.10
2022-12-05T08:48:53.866Z,6.20
2022-12-05T08:51:20.755Z,6.20
2022-12-05T08:53:47.591Z,6.20
2022-12-05T08:56:14.641Z,6.20
2022-12-05T08:58:41.925Z,6.20
2022-12-05T09:01:17.313Z,6.30
2022-12-05T09:03:47.750Z,6.20
2022-12-05T09:06:20.404Z,6.20
2022-12-05T09:08:47.719Z,6.30
2022-12-05T09:11:18.224Z,6.30
2022-12-05T09:13:46.204Z,6.20
2022-12-05T09:16:15.561Z,6.30
2022-12-05T09:18:42.799Z,6.30
2022-12-05T09:21:18.157Z,6.30
2022-12-05T09:23:45.610Z,6.30
2022-12-05T09:26:15.091Z,6.30
2022-12-05T09:28:42.430Z,6.50
2022-12-05T09:31:15.814Z,6.30
2022-12-05T09:33:42.985Z,6.40
2022-12-05T09:36:16.674Z,6.40
2022-12-05T09:38:44.170Z,6.40
2022-12-05T09:41:45.872Z,6.40
2022-12-05T09:44:32.463Z,6.50
2022-12-05T09:47:04.443Z,6.40
2022-12-05T09:49:33.287Z,6.40
2022-12-05T09:52:01.485Z,6.40
2022-12-05T09:54:28.695Z,6.40
2022-12-05T09:56:55.533Z,6.40
2022-12-05T09:59:22.247Z,6.40
2022-12-05T10:01:52.054Z,6.40
2022-12-05T10:04:39.012Z,6.40
2022-12-05T10:07:11.282Z,6.40
2022-12-05T10:09:40.989Z,6.50
2022-12-05T10:12:50.472Z,6.50
2022-12-05T10:15:32.292Z,6.50
2022-12-05T10:18:18.310Z,6.40
2022-12-05T10:20:54.154Z,6.40
2022-12-05T10:23:56.678Z,6.50
2022-12-05T10:26:20.039Z,6.50
2022-12-05T10:29:03.213Z,6.50
2022-12-05T10:31:34.746Z,6.50
2022-12-05T10:34:18.503Z,6.50
2022-12-05T10:37:09.011Z,6.50
2022-12-05T10:39:36.056Z,6.50
2022-12-05T10:42:03.870Z,6.50
2022-12-05T10:44:32.176Z,6.50
2022-12-05T10:46:59.513Z,6.50
2022-12-05T10:49:27.307Z,6.50
2022-12-05T10:51:54.062Z,6.50
2022-12-05T10:54:24.598Z,6.50
2022-12-05T10:56:52.809Z,6.90
2022-12-05T10:59:44.241Z,6.50
2022-12-05T11:02:31.893Z,6.50
2022-12-05T11:04:59.624Z,6.50
2022-12-05T11:07:32.043Z,6.40
2022-12-05T11:10:01.003Z,6.40
2022-12-05T11:12:29.464Z,6.40
2022-12-05T11:15:01.170Z,6.40
2022-12-05T11:17:36.443Z,6.40
2022-12-05T11:20:25.091Z,6.30
2022-12-05T11:22:54.055Z,6.30
2022-12-05T11:25:36.879Z,6.30
2022-12-05T11:28:29.951Z,6.30
2022-12-05T11:31:04.635Z,6.30
2022-12-05T11:33:35.907Z,6.30
2022-12-05T11:36:20.456Z,6.30
2022-12-05T11:38:47.520Z,6.30
2022-12-05T11:41:41.613Z,6.30
2022-12-05T11:44:25.729Z,6.30
2022-12-05T11:47:14.183Z,6.40
2022-12-05T11:49:43.947Z,6.40
2022-12-05T11:52:25.740Z,6.30
2022-12-05T11:55:07.510Z,6.30
2022-12-05T11:57:50.418Z,6.30
2022-12-05T12:00:35.177Z,6.30
2022-12-05T12:03:32.855Z,6.30
2022-12-05T12:06:18.954Z,6.30
2022-12-05T12:09:06.280Z,6.30
2022-12-05T12:11:51.758Z,6.30
2022-12-05T12:14:36.329Z,6.30
2022-12-05T12:17:25.164Z,6.30
2022-12-05T12:20:18.345Z,6.30
2022-12-05T12:23:11.436Z,6.30
2022-12-05T12:25:38.110Z,6.30
2022-12-05T12:28:19.090Z,6.30
2022-12-05T12:31:13.911Z,6.30
2022-12-05T12:33:52.605Z,6.40
2022-12-05T12:36:31.728Z,6.40
2022-12-05T12:39:12.869Z,6.40
2022-12-05T12:41:54.934Z,6.40
2022-12-05T12:44:40.281Z,6.40
2022-12-05T12:47:32.342Z,6.30
2022-12-05T12:50:18.358Z,6.30
2022-12-05T12:52:57.773Z,6.30
2022-12-05T12:55:37.060Z,6.30
2022-12-05T12:58:12.974Z,6.40
2022-12-05T13:01:00.914Z,6.40
2022-12-05T13:03:38.385Z,6.40
2022-12-05T13:06:28.842Z,6.40
2022-12-05T13:09:19.315Z,6.40
2022-12-05T13:11:49.692Z,6.40
2022-12-05T13:14:20.594Z,6.40
2022-12-05T13:16:50.828Z,6.30
2022-12-05T13:19:37.227Z,6.40
2022-12-05T13:22:05.898Z,6.40
2022-12-05T13:24:32.829Z,6.40
2022-12-05T13:27:07.544Z,6.40
2022-12-05T13:29:48.426Z,6.40
2022-12-05T13:32:44.657Z,6.40
2022-12-05T13:35:47.118Z,6.40
2022-12-05T13:38:55.400Z,6.80
2022-12-05T13:41:41.004Z,6.40
2022-12-05T13:44:12.249Z,6.40
2022-12-05T13:46:42.904Z,6.40
2022-12-05T13:49:35.927Z,6.40
2022-12-05T13:52:12.530Z,6.40
2022-12-05T13:54:45.897Z,6.40
2022-12-05T13:57:37.734Z,6.40
2022-12-05T14:00:10.578Z,6.40
2022-12-05T14:02:47.297Z,6.40
2022-12-05T14:05:14.118Z,6.30
2022-12-05T14:07:48.912Z,6.30
2022-12-05T14:10:20.722Z,6.30
2022-12-05T14:12:55.040Z,6.30
2022-12-05T14:15:25.901Z,6.30
2022-12-05T14:18:16.812Z,6.30
2022-12-05T14:20:46.833Z,6.30
2022-12-05T14:23:47.288Z,6.30
2022-12-05T14:26:48.167Z,6.20
2022-12-05T14:29:35.470Z,6.20
2022-12-05T14:32:10.070Z,6.20
2022-12-05T14:34:47.486Z,6.20
2022-12-05T14:37:16.910Z,6.20
2022-12-05T14:39:51.574Z,6.20
2022-12-05T14:42:46.186Z,6.20
2022-12-05T14:45:37.085Z,6.20
2022-12-05T14:48:13.146Z,6.20
2022-12-05T14:50:46.289Z,6.10
2022-12-05T14:53:21.926Z,6.10
2022-12-05T14:55:53.280Z,6.10
2022-12-05T14:58:44.899Z,6.10
2022-12-05T15:01:27.655Z,6.20
2022-12-05T15:04:12.464Z,6.10
2022-12-05T15:07:05.456Z,6.10
2022-12-05T15:09:43.162Z,6.10
2022-12-05T15:12:19.482Z,6.20
2022-12-05T15:15:05.943Z,6.20
2022-12-05T15:17:48.625Z,6.20
2022-12-05T15:20:21.313Z,6.20
2022-12-05T15:22:48.183Z,6.20
2022-12-05T15:25:22.910Z,6.20
2022-12-05T15:27:54.809Z,6.20
2022-12-05T15:30:21.524Z,6.20
2022-12-05T15:32:48.476Z,6.20
2022-12-05T15:35:16.475Z,6.10
2022-12-05T15:37:55.119Z,6.10
2022-12-05T15:40:24.153Z,6.10
2022-12-05T15:42:53.118Z,6.10
2022-12-05T15:45:23.629Z,6.10
2022-12-05T15:47:52.065Z,6.10
2022-12-05T15:50:27.026Z,6.10
2022-12-05T15:53:02.818Z,6.20
2022-12-05T15:55:43.323Z,6.20
2022-12-05T15:58:26.232Z,6.10
2022-12-05T16:01:15.709Z,6.20
2022-12-05T16:03:52.823Z,6.10
2022-12-05T16:06:28.639Z,6.10
2022-12-05T16:08:57.169Z,6.10
2022-12-05T16:11:24.294Z,6.10
2022-12-05T16:13:56.656Z,6.10
2022-12-05T16:16:35.733Z,6.20
2022-12-05T16:19:14.816Z,6.20
2022-12-05T16:22:14.645Z,6.20
2022-12-05T16:24:43.524Z,6.20
2022-12-05T16:27:44.858Z,6.20
2022-12-05T16:30:20.253Z,6.20
2022-12-05T16:32:49.137Z,6.10
2022-12-05T16:35:36.963Z,6.10
2022-12-05T16:38:14.602Z,6.20
2022-12-05T16:40:45.884Z,6.20
2022-12-05T16:43:25.034Z,6.20
2022-12-05T16:45:54.179Z,6.20
2022-12-05T16:48:30.688Z,6.20
2022-12-05T16:51:19.316Z,6.20
2022-12-05T16:53:51.612Z,6.20
2022-12-05T16:56:29.669Z,6.20
2022-12-05T16:58:57.558Z,6.20
2022-12-05T17:01:27.011Z,6.10
2022-12-05T17:03:54.752Z,6.20
2022-12-05T17:06:24.098Z,6.20
2022-12-05T17:08:52.294Z,6.20
2022-12-05T17:11:21.212Z,6.20
2022-12-05T17:13:48.672Z,6.20
2022-12-05T17:16:20.569Z,6.20
2022-12-05T17:18:47.792Z,6.20
2022-12-05T17:21:23.807Z,6.20
2022-12-05T17:23:50.867Z,6.20
2022-12-05T17:26:20.119Z,6.20
2022-12-05T17:28:47.452Z,6.20
2022-12-05T17:31:17.290Z,6.20
2022-12-05T17:33:45.981Z,6.20
2022-12-05T17:36:18.039Z,6.20
2022-12-05T17:38:46.255Z,6.20
2022-12-05T17:41:19.142Z,6.20
2022-12-05T17:43:46.797Z,6.20
2022-12-05T17:46:18.930Z,6.20
2022-12-05T17:48:46.921Z,6.10
2022-12-05T17:51:16.278Z,6.20
2022-12-05T17:53:44.659Z,6.20
2022-12-05T17:56:12.577Z,6.20
2022-12-05T17:58:39.717Z,6.20
2022-12-05T18:01:06.960Z,6.20
2022-12-05T18:03:34.122Z,6.20
2022-12-05T18:06:03.922Z,6.30
2022-12-05T18:08:30.634Z,6.30
2022-12-05T18:10:58.296Z,6.30
2022-12-05T18:13:25.003Z,6.30
2022-12-05T18:15:57.089Z,6.20
2022-12-05T18:18:24.211Z,6.20
2022-12-05T18:20:51.058Z,6.20
2022-12-05T18:23:17.897Z,6.20
2022-12-05T18:25:46.998Z,6.20
2022-12-05T18:28:17.899Z,6.20
2022-12-05T18:30:46.451Z,6.20
2022-12-05T18:33:13.353Z,6.20
2022-12-05T18:35:41.597Z,6.20
2022-12-05T18:38:10.556Z,6.30
2022-12-05T18:40:37.557Z,6.20
2022-12-05T18:43:04.377Z,6.20
2022-12-05T18:45:31.282Z,6.20
2022-12-05T18:48:09.863Z,6.20
2022-12-05T18:50:44.978Z,6.20
2022-12-05T18:53:11.727Z,6.20
2022-12-05T18:55:58.346Z,6.20
2022-12-05T18:58:25.087Z,6.20
2022-12-05T19:00:51.818Z,6.20
2022-12-05T19:03:18.570Z,6.20
2022-12-05T19:05:46.402Z,6.20
2022-12-05T19:08:13.245Z,6.20
2022-12-05T19:10:40.028Z,6.30
2022-12-05T19:13:06.906Z,6.20
2022-12-05T19:15:33.600Z,6.20
2022-12-05T19:18:09.439Z,6.20
2022-12-05T19:20:36.292Z,6.30
2022-12-05T19:23:03.058Z,6.30
2022-12-05T19:25:30.672Z,6.20
2022-12-05T19:27:57.467Z,6.20
2022-12-05T19:30:24.499Z,6.20
2022-12-05T19:32:51.287Z,6.20
2022-12-05T19:35:18.127Z,6.20
2022-12-05T19:37:44.861Z,6.20
2022-12-05T19:40:12.073Z,6.30
2022-12-05T19:42:38.810Z,6.20
2022-12-05T19:45:08.920Z,6.30
2022-12-05T19:47:38.026Z,6.20
2022-12-05T19:50:05.491Z,6.20
2022-12-05T19:52:32.177Z,6.20
2022-12-05T19:54:58.868Z,6.20
2022-12-05T19:57:31.609Z,6.20
2022-12-05T19:59:58.709Z,6.20
2022-12-05T20:02:25.838Z,6.20
2022-12-05T20:04:52.643Z,6.20
2022-12-05T20:07:19.479Z,6.20
2022-12-05T20:09:46.145Z,6.20
2022-12-05T20:12:12.956Z,6.20
2022-12-05T20:14:39.627Z,6.20
2022-12-05T20:17:06.494Z,6.20
2022-12-05T20:19:33.221Z,6.20
2022-12-05T20:21:59.896Z,6.20
2022-12-05T20:24:26.714Z,6.10
2022-12-05T20:26:53.451Z,6.20
2022-12-05T20:29:20.184Z,6.20
2022-12-05T20:31:46.932Z,6.20
2022-12-05T20:34:15.488Z,6.20
2022-12-05T20:36:42.556Z,6.20
2022-12-05T20:39:14.002Z,6.20
2022-12-05T20:41:40.814Z,6.20
2022-12-05T20:44:08.578Z,6.20
2022-12-05T20:46:36.819Z,6.20
2022-12-05T20:49:04.067Z,6.20
2022-12-05T20:51:32.294Z,6.20
2022-12-05T20:54:01.221Z,6.20
2022-12-05T20:56:32.335Z,6.20
2022-12-05T20:59:01.734Z,6.20
2022-12-05T21:01:30.869Z,6.20
2022-12-05T21:03:57.853Z,6.20
2022-12-05T21:06:30.485Z,6.20
2022-12-05T21:08:58.499Z,6.20
2022-12-05T21:11:26.455Z,6.10
2022-12-05T21:13:55.871Z,6.10
2022-12-05T21:16:23.330Z,6.10
2022-12-05T21:18:51.371Z,6.10
2022-12-05T21:21:20.913Z,6.10
2022-12-05T21:23:52.507Z,6.10
2022-12-05T21:26:19.744Z,6.10
2022-12-05T21:28:46.808Z,6.10
2022-12-05T21:31:15.483Z,6.10
2022-12-05T21:33:45.968Z,6.10
2022-12-05T21:36:12.852Z,6.10
2022-12-05T21:38:39.620Z,6.10
2022-12-05T21:41:06.732Z,6.10
2022-12-05T21:43:39.484Z,6.10
2022-12-05T21:46:06.792Z,6.10
2022-12-05T21:48:34.394Z,6.20
2022-12-05T21:51:01.276Z,6.20
2022-12-05T21:53:28.109Z,6.20
2022-12-05T21:56:03.430Z,6.20
2022-12-05T21:58:30.294Z,6.20
2022-12-05T22:00:57.074Z,6.20
2022-12-05T22:03:23.981Z,6.30
2022-12-05T22:05:50.760Z,6.30
2022-12-05T22:08:17.501Z,6.40
2022-12-05T22:10:44.293Z,6.40
2022-12-05T22:13:10.942Z,6.40
2022-12-05T22:15:37.702Z,6.40
2022-12-05T22:18:04.699Z,6.40
2022-12-05T22:20:31.399Z,6.40
2022-12-05T22:22:58.101Z,6.40
2022-12-05T22:25:24.774Z,6.40
2022-12-05T22:27:51.503Z,6.40
2022-12-05T22:30:18.479Z,6.40
2022-12-05T22:32:45.175Z,6.40
2022-12-05T22:35:11.866Z,6.40
2022-12-05T22:37:38.555Z,6.40
2022-12-05T22:40:06.019Z,6.40
2022-12-05T22:42:32.689Z,6.40
2022-12-05T22:44:59.379Z,6.40
2022-12-05T22:47:26.050Z,6.50
2022-12-05T22:49:52.754Z,6.50
2022-12-05T22:52:19.464Z,6.50
2022-12-05T22:54:46.137Z,6.50
2022-12-05T22:57:12.810Z,6.50
2022-12-05T22:59:39.462Z,6.50
2022-12-05T23:02:06.330Z,6.50
2022-12-05T23:04:33.055Z,6.50
2022-12-05T23:06:59.858Z,6.50
2022-12-05T23:09:27.154Z,6.50
2022-12-05T23:11:53.871Z,6.50
2022-12-05T23:14:20.721Z,6.50
2022-12-05T23:16:47.566Z,6.50
2022-12-05T23:19:14.507Z,6.50
2022-12-05T23:21:41.217Z,6.40
2022-12-05T23:24:10.608Z,6.40
2022-12-05T23:26:44.330Z,6.40
2022-12-05T23:29:12.694Z,6.40
2022-12-05T23:31:40.121Z,6.40
2022-12-05T23:34:07.412Z,6.40
2022-12-05T23:36:34.782Z,6.40
2022-12-05T23:39:01.894Z,6.40
2022-12-05T23:41:29.184Z,6.30
2022-12-05T23:43:56.812Z,6.40
2022-12-05T23:46:25.815Z,6.40
2022-12-05T23:48:55.253Z,6.40
2022-12-05T23:51:27.716Z,6.40
2022-12-05T23:53:57.097Z,6.40
2022-12-05T23:56:27.632Z,6.30
2022-12-05T23:58:56.022Z,6.30
